Time;durP1;ratioP1;P1;durP2;ratioP2;P2;SDS_P1;SDS_P2;PMS_P1;PMS_P2;Temp;Humidity;BMP_temperature;BMP_pressure;BME280_temperature;BME280_humidity;BME280_pressure;Samples;Min_cycle;Max_cycle;Signal;HPM_P1;HPM_P2
2022/09/15 00:02:08;;;;;;;40.00;24.35;;;;;;;11.61;100.00;100624.31;5092418;28;20039;-47
2022/09/15 00:04:34;;;;;;;40.78;24.90;;;;;;;11.59;100.00;100636.28;5091761;28;20834;-48
2022/09/15 00:06:59;;;;;;;46.42;26.77;;;;;;;11.64;100.00;100627.78;5092546;28;20158;-46
2022/09/15 00:09:25;;;;;;;44.22;26.63;;;;;;;11.64;100.00;100624.34;5092200;28;20376;-48
2022/09/15 00:11:50;;;;;;;43.92;26.83;;;;;;;11.67;100.00;100625.28;5091657;28;20105;-46
2022/09/15 00:14:16;;;;;;;44.30;26.90;;;;;;;11.64;100.00;100626.94;5092401;28;20021;-47
2022/09/15 00:16:41;;;;;;;44.38;27.20;;;;;;;11.67;100.00;100621.81;5095242;28;20066;-47
2022/09/15 00:19:06;;;;;;;43.85;26.55;;;;;;;11.72;100.00;100616.78;5094998;28;20073;-49
2022/09/15 00:21:34;;;;;;;49.13;29.23;;;;;;;11.76;100.00;100618.56;5095990;28;20490;-44
2022/09/15 00:24:01;;;;;;;50.15;28.17;;;;;;;11.80;100.00;100621.25;5095929;28;20433;-47
2022/09/15 00:26:28;;;;;;;53.70;30.52;;;;;;;11.87;100.00;100624.84;5095232;28;20430;-46
2022/09/15 00:28:55;;;;;;;56.10;31.88;;;;;;;11.89;100.00;100620.59;5096101;28;20020;-44
2022/09/15 00:31:23;;;;;;;52.40;31.35;;;;;;;11.91;100.00;100615.44;5095488;28;20073;-48
2022/09/15 00:33:51;;;;;;;55.55;32.03;;;;;;;11.94;100.00;100610.34;5095096;28;20025;-44
2022/09/15 00:36:18;;;;;;;58.70;32.35;;;;;;;11.96;100.00;100603.53;5095601;28;20094;-45
2022/09/15 00:38:43;;;;;;;58.90;32.28;;;;;;;11.99;100.00;100608.75;5095674;28;20024;-44
2022/09/15 00:41:12;;;;;;;54.40;31.10;;;;;;;12.01;100.00;100609.66;5094532;28;20463;-44
2022/09/15 00:43:57;;;;;;;52.53;32.58;;;;;;;12.03;100.00;100602.78;5095807;28;20073;-43
2022/09/15 00:46:31;;;;;;;53.00;31.65;;;;;;;12.04;100.00;100606.28;5094046;28;20040;-45
2022/09/15 00:49:28;;;;;;;53.60;31.20;;;;;;;12.07;100.00;100608.91;5095526;28;20023;-47
2022/09/15 00:51:59;;;;;;;52.78;31.83;;;;;;;12.11;100.00;100611.59;5112964;28;20085;-47
2022/09/15 00:54:37;;;;;;;54.05;31.75;;;;;;;12.10;100.00;100615.00;5114743;28;20085;-44
2022/09/15 00:57:08;;;;;;;52.90;32.35;;;;;;;12.10;100.00;100604.66;5115587;27;20140;-44
2022/09/15 00:59:37;;;;;;;50.83;30.45;;;;;;;12.12;100.00;100613.34;5115340;28;20107;-45
2022/09/15 01:02:12;;;;;;;53.13;31.77;;;;;;;12.14;100.00;100621.09;5114285;28;20473;-47
2022/09/15 01:04:38;;;;;;;53.33;31.75;;;;;;;12.15;100.00;100617.69;5115672;28;20367;-45
2022/09/15 01:07:06;;;;;;;47.63;30.45;;;;;;;12.15;100.00;100623.72;5115196;28;20476;-47
2022/09/15 01:09:37;;;;;;;49.88;30.95;;;;;;;12.17;100.00;100629.78;5114878;28;20110;-44
2022/09/15 01:12:03;;;;;;;50.28;29.90;;;;;;;12.19;100.00;100624.66;5115171;28;20019;-45
2022/09/15 01:14:29;;;;;;;52.25;30.52;;;;;;;12.18;100.00;100628.94;5115671;28;20039;-45
2022/09/15 01:17:33;;;;;;;50.55;30.42;;;;;;;12.23;100.00;100630.75;5114642;28;20030;-44
2022/09/15 01:20:21;;;;;;;53.70;31.30;;;;;;;12.22;100.00;100623.84;5115493;28;20098;-48
2022/09/15 01:23:19;;;;;;;52.35;32.28;;;;;;;12.25;100.00;100618.72;5114697;28;20052;-46
2022/09/15 01:25:53;;;;;;;52.25;30.88;;;;;;;12.26;100.00;100615.28;5115222;27;20483;-44
2022/09/15 01:28:40;;;;;;;49.45;30.38;;;;;;;12.26;100.00;100617.88;5114121;28;20062;-45
2022/09/15 01:31:28;;;;;;;49.45;29.55;;;;;;;12.27;100.00;100617.03;5114839;28;20485;-45
2022/09/15 01:34:14;;;;;;;44.78;29.27;;;;;;;12.23;100.00;100610.09;5114903;28;20547;-44
2022/09/15 01:36:46;;;;;;;46.08;28.40;;;;;;;12.21;100.00;100615.19;5114294;28;20043;-47
2022/09/15 01:39:37;;;;;;;51.50;30.20;;;;;;;12.24;100.00;100614.38;5114633;28;20406;-44
2022/09/15 01:42:06;;;;;;;50.63;30.02;;;;;;;12.24;100.00;100614.38;5114673;28;20028;-44
2022/09/15 01:44:37;;;;;;;48.40;29.70;;;;;;;12.23;100.00;100607.50;5114029;28;20074;-46
2022/09/15 01:47:06;;;;;;;46.60;27.88;;;;;;;12.15;100.00;100613.38;5114640;28;20127;-46
2022/09/15 01:49:50;;;;;;;42.85;27.27;;;;;;;12.13;100.00;100615.06;5114728;28;20031;-44
2022/09/15 01:52:18;;;;;;;46.40;27.58;;;;;;;12.14;100.00;100621.97;5114588;28;20031;-49
2022/09/15 01:54:48;;;;;;;47.88;28.92;;;;;;;12.16;100.00;100615.13;5114614;28;20471;-47
2022/09/15 01:57:20;;;;;;;46.70;27.98;;;;;;;12.15;100.00;100618.53;5113647;28;20019;-44
2022/09/15 01:59:47;;;;;;;47.22;29.35;;;;;;;12.13;100.00;100607.31;5114538;28;20034;-44
2022/09/15 02:02:35;;;;;;;54.28;29.15;;;;;;;12.13;100.00;100612.47;5113999;28;20031;-45
2022/09/15 02:05:02;;;;;;;44.88;28.38;;;;;;;12.06;100.00;100608.03;5113720;28;20027;-45
2022/09/15 02:07:35;;;;;;;49.70;28.63;;;;;;;12.00;100.00;100618.25;5114598;28;20046;-46
2022/09/15 02:10:10;;;;;;;48.97;29.27;;;;;;;11.99;100.00;100608.75;5114307;28;20034;-45
2022/09/15 02:12:51;;;;;;;49.75;30.02;;;;;;;11.97;100.00;100610.44;5113528;28;20374;-45
2022/09/15 02:15:29;;;;;;;50.08;29.02;;;;;;;12.00;100.00;100608.78;5114182;28;20031;-45
2022/09/15 02:17:56;;;;;;;49.55;29.90;;;;;;;11.98;100.00;100609.59;5113603;28;20031;-44
2022/09/15 02:20:42;;;;;;;46.88;29.88;;;;;;;11.96;100.00;100611.28;5113948;28;20038;-46
2022/09/15 02:23:14;;;;;;;43.83;27.83;;;;;;;11.90;100.00;100617.13;5113825;28;20352;-44
2022/09/15 02:25:44;;;;;;;44.08;27.38;;;;;;;11.89;100.00;100614.53;5113489;28;20055;-45
2022/09/15 02:28:12;;;;;;;46.38;26.20;;;;;;;11.85;100.00;100613.59;5114149;28;20034;-45
2022/09/15 02:30:41;;;;;;;43.25;26.83;;;;;;;11.81;100.00;100614.38;5114089;28;20114;-44
2022/09/15 02:33:11;;;;;;;45.47;27.65;;;;;;;11.70;100.00;100609.84;5112900;28;20030;-45
2022/09/15 02:35:38;;;;;;;49.85;28.50;;;;;;;11.72;100.00;100611.59;5113927;28;20050;-44
2022/09/15 02:38:06;;;;;;;48.35;28.45;;;;;;;11.61;100.00;100601.94;5113860;28;20053;-46
2022/09/15 02:40:32;;;;;;;48.13;29.13;;;;;;;11.66;100.00;100596.88;5112959;28;20500;-46
2022/09/15 02:43:02;;;;;;;53.08;28.60;;;;;;;11.55;100.00;100603.50;5113779;28;20032;-44
2022/09/15 02:45:29;;;;;;;40.95;27.05;;;;;;;11.49;100.00;100605.13;5113651;28;20044;-44
2022/09/15 02:47:56;;;;;;;39.88;26.88;;;;;;;11.46;100.00;100607.63;5112946;28;20027;-44
2022/09/15 02:50:24;;;;;;;39.00;24.13;;;;;;;11.29;100.00;100614.13;5110915;28;20023;-45
2022/09/15 02:52:50;;;;;;;45.70;25.95;;;;;;;11.32;100.00;100619.34;5093364;28;20386;-45
2022/09/15 02:55:15;;;;;;;49.75;28.77;;;;;;;11.31;100.00;100612.44;5092164;28;20020;-45
2022/09/15 02:57:40;;;;;;;44.85;27.83;;;;;;;11.35;100.00;100611.69;5093496;28;20028;-46
2022/09/15 03:00:13;;;;;;;47.67;29.30;;;;;;;11.32;100.00;100611.59;5091873;28;20070;-45
2022/09/15 03:02:39;;;;;;;50.63;29.45;;;;;;;11.32;100.00;100614.19;5092729;28;20111;-45
2022/09/15 03:05:06;;;;;;;53.47;30.10;;;;;;;11.28;100.00;100609.78;5093080;28;20024;-47
2022/09/15 03:07:32;;;;;;;50.00;30.85;;;;;;;11.24;100.00;100607.97;5092253;28;20371;-44
2022/09/15 03:09:57;;;;;;;50.58;29.98;;;;;;;11.19;100.00;100613.03;5093150;28;20027;-44
2022/09/15 03:12:24;;;;;;;58.10;30.33;;;;;;;11.09;100.00;100614.53;5092822;28;20020;-45
2022/09/15 03:14:49;;;;;;;63.63;31.15;;;;;;;11.12;100.00;100617.19;5092203;28;20031;-45
2022/09/15 03:17:16;;;;;;;62.47;34.25;;;;;;;11.16;100.00;100615.53;5092504;28;20028;-45
2022/09/15 03:19:41;;;;;;;54.15;32.05;;;;;;;11.14;100.00;100618.09;5093097;28;20024;-47
2022/09/15 03:22:08;;;;;;;54.00;31.67;;;;;;;11.08;100.00;100620.53;5092004;28;20053;-45
2022/09/15 03:24:33;;;;;;;63.23;35.37;;;;;;;11.22;100.00;100632.88;5093080;28;20103;-46
2022/09/15 03:26:59;;;;;;;61.30;36.88;;;;;;;11.31;100.00;100633.97;5092992;28;20105;-47
2022/09/15 03:29:24;;;;;;;67.95;38.15;;;;;;;11.34;100.00;100638.31;5091897;28;20020;-44
2022/09/15 03:31:49;;;;;;;66.28;34.58;;;;;;;11.35;100.00;100647.81;5092799;28;20028;-45
2022/09/15 03:34:14;;;;;;;59.22;35.85;;;;;;;11.40;100.00;100647.91;5092713;28;20024;-43
2022/09/15 03:36:40;;;;;;;67.78;39.90;;;;;;;11.49;100.00;100651.56;5092194;28;20024;-48
2022/09/15 03:39:05;;;;;;;68.60;39.33;;;;;;;11.52;100.00;100658.50;5092583;28;20020;-44
2022/09/15 03:41:31;;;;;;;70.55;39.90;;;;;;;11.61;100.00;100663.03;5092673;28;20395;-45
2022/09/15 03:43:56;;;;;;;68.55;39.63;;;;;;;11.62;100.00;100659.56;5092014;28;20032;-45
2022/09/15 03:46:22;;;;;;;64.60;39.75;;;;;;;11.66;100.00;100653.66;5092303;28;20662;-47
2022/09/15 03:48:47;;;;;;;62.83;38.28;;;;;;;11.68;100.00;100660.59;5092934;28;20478;-45
2022/09/15 03:51:13;;;;;;;61.40;37.83;;;;;;;11.68;100.00;100664.88;5093889;28;20030;-46
2022/09/15 03:53:40;;;;;;;59.50;35.20;;;;;;;11.70;100.00;100655.47;5096585;28;20028;-46
2022/09/15 03:56:09;;;;;;;59.75;37.53;;;;;;;11.75;100.00;100659.03;5096337;28;20035;-45
2022/09/15 03:58:35;;;;;;;59.92;36.15;;;;;;;11.76;100.00;100650.44;5095725;28;20066;-44
2022/09/15 04:01:00;;;;;;;56.72;36.40;;;;;;;11.78;100.00;100653.91;5096222;28;20418;-44
2022/09/15 04:03:25;;;;;;;56.65;35.42;;;;;;;11.79;100.00;100645.34;5095711;28;20112;-44
2022/09/15 04:05:51;;;;;;;54.75;34.45;;;;;;;11.86;100.00;100644.63;5096501;28;20020;-46
2022/09/15 04:08:16;;;;;;;56.05;34.38;;;;;;;11.89;100.00;100645.53;5096128;28;20031;-45
2022/09/15 04:10:41;;;;;;;50.28;32.45;;;;;;;11.84;100.00;100641.13;5095543;28;20080;-44
2022/09/15 04:13:07;;;;;;;46.17;30.05;;;;;;;11.81;100.00;100635.03;5096056;28;20032;-44
2022/09/15 04:15:33;;;;;;;50.80;32.00;;;;;;;11.80;100.00;100631.59;5096166;28;20028;-46
2022/09/15 04:17:58;;;;;;;45.92;30.08;;;;;;;11.82;100.00;100636.78;5095593;28;20047;-44
2022/09/15 04:20:23;;;;;;;52.20;32.05;;;;;;;11.80;100.00;100641.91;5095863;28;20028;-48
2022/09/15 04:22:49;;;;;;;47.90;32.28;;;;;;;11.82;100.00;100636.78;5096067;28;20036;-49
2022/09/15 04:25:14;;;;;;;49.28;32.15;;;;;;;11.88;100.00;100643.78;5095031;28;20016;-44
2022/09/15 04:27:40;;;;;;;48.35;31.80;;;;;;;11.84;100.00;100643.72;5095906;28;20020;-45
2022/09/15 04:30:07;;;;;;;49.70;31.98;;;;;;;11.85;100.00;100634.25;5095536;28;20024;-44
2022/09/15 04:32:34;;;;;;;44.15;31.85;;;;;;;11.85;100.00;100635.13;5095289;28;20035;-45
2022/09/15 04:34:59;;;;;;;44.60;30.13;;;;;;;11.86;100.00;100641.16;5095901;28;20026;-49
2022/09/15 04:37:25;;;;;;;44.20;31.17;;;;;;;11.89;100.00;100635.19;5093475;28;20370;-43
2022/09/15 04:39:50;;;;;;;45.67;30.00;;;;;;;11.88;100.00;100639.50;5100209;28;20031;-43
2022/09/15 04:42:15;;;;;;;46.38;30.85;;;;;;;11.92;100.00;100640.44;5102904;28;20036;-44
2022/09/15 04:44:41;;;;;;;41.92;30.42;;;;;;;11.94;100.00;100639.63;5105406;28;20027;-46
2022/09/15 04:47:06;;;;;;;45.05;32.58;;;;;;;11.93;100.00;100639.56;5102208;28;20534;-43
2022/09/15 04:49:32;;;;;;;46.28;31.42;;;;;;;11.96;100.00;100647.44;5108746;28;20024;-45
2022/09/15 04:51:57;;;;;;;45.67;31.67;;;;;;;11.93;100.00;100647.31;5115561;28;20448;-44
2022/09/15 04:54:22;;;;;;;40.58;29.90;;;;;;;11.92;100.00;100640.44;5100406;28;20061;-43
2022/09/15 04:56:48;;;;;;;43.55;30.65;;;;;;;11.89;100.00;100645.53;5103102;28;20054;-43
2022/09/15 04:59:17;;;;;;;43.05;30.85;;;;;;;11.91;100.00;100646.44;5111077;28;20035;-47
2022/09/15 05:01:43;;;;;;;53.95;36.75;;;;;;;11.83;100.00;100646.28;5110046;28;20482;-46
2022/09/15 05:04:09;;;;;;;56.50;30.58;;;;;;;11.80;100.00;100648.78;5114494;28;20111;-43
2022/09/15 05:06:35;;;;;;;47.63;31.42;;;;;;;11.78;100.00;100645.31;5108452;27;20055;-44
2022/09/15 05:09:01;;;;;;;40.30;29.10;;;;;;;11.73;100.00;100639.19;5103568;28;20030;-43
2022/09/15 05:11:27;;;;;;;42.53;30.25;;;;;;;11.71;100.00;100636.56;5107151;28;20024;-43
2022/09/15 05:13:53;;;;;;;45.92;30.98;;;;;;;11.70;100.00;100642.56;5102992;28;20073;-44
2022/09/15 05:16:27;;;;;;;43.25;30.77;;;;;;;11.69;100.00;100648.56;5110214;28;20028;-47
2022/09/15 05:18:55;;;;;;;47.70;31.98;;;;;;;11.71;100.00;100641.72;5114660;28;20375;-44
2022/09/15 05:21:21;;;;;;;44.47;31.92;;;;;;;11.72;100.00;100640.88;5110449;28;20035;-44
2022/09/15 05:23:48;;;;;;;43.90;29.87;;;;;;;11.72;100.00;100653.78;5104293;28;20036;-44
2022/09/15 05:26:17;;;;;;;45.60;31.05;;;;;;;11.69;100.00;100640.81;5109249;28;20497;-45
2022/09/15 05:28:42;;;;;;;44.58;29.67;;;;;;;11.72;100.00;100640.88;5112535;28;20510;-43
2022/09/15 05:31:19;;;;;;;45.08;30.90;;;;;;;11.69;100.00;100649.41;5102952;28;20051;-45
2022/09/15 05:33:46;;;;;;;40.22;29.90;;;;;;;11.69;100.00;100652.00;5106791;28;20031;-44
2022/09/15 05:36:16;;;;;;;47.25;30.80;;;;;;;11.73;100.00;100657.25;5114238;28;20053;-44
2022/09/15 05:38:42;;;;;;;49.38;33.65;;;;;;;11.74;100.00;100649.53;5113246;28;20062;-46
2022/09/15 05:41:10;;;;;;;52.88;32.38;;;;;;;11.75;100.00;100659.03;5113563;28;20032;-49
2022/09/15 05:43:37;;;;;;;48.85;33.45;;;;;;;11.83;100.00;100660.03;5114251;28;20027;-45
2022/09/15 05:46:03;;;;;;;52.45;34.33;;;;;;;11.89;100.00;100666.19;5114409;28;20043;-44
2022/09/15 05:48:29;;;;;;;44.83;30.88;;;;;;;11.91;100.00;100661.94;5115040;28;20032;-47
2022/09/15 05:50:55;;;;;;;43.15;31.27;;;;;;;11.94;100.00;100665.47;5114116;28;20023;-44
2022/09/15 05:53:22;;;;;;;45.47;30.83;;;;;;;11.97;100.00;100664.69;5094109;28;20032;-45
2022/09/15 05:55:48;;;;;;;47.42;32.35;;;;;;;12.06;100.00;100667.44;5094381;28;20043;-44
2022/09/15 05:58:13;;;;;;;48.42;32.13;;;;;;;12.08;100.00;100670.06;5093330;28;20475;-45
2022/09/15 06:00:40;;;;;;;49.10;33.60;;;;;;;12.21;100.00;100678.94;5093957;28;20031;-49
2022/09/15 06:03:06;;;;;;;55.35;34.22;;;;;;;12.26;100.00;100688.50;5092564;28;20020;-46
2022/09/15 06:05:31;;;;;;;48.50;32.20;;;;;;;12.21;100.00;100684.09;5094014;28;20024;-45
2022/09/15 06:07:57;;;;;;;44.35;32.13;;;;;;;12.23;100.00;100675.53;5096271;28;20395;-46
2022/09/15 06:10:23;;;;;;;41.08;29.85;;;;;;;12.24;100.00;100685.03;5093180;28;20039;-44
2022/09/15 06:12:52;;;;;;;43.87;32.33;;;;;;;12.27;100.00;100682.50;5093635;28;20035;-45
2022/09/15 06:15:20;;;;;;;41.95;30.40;;;;;;;12.30;100.00;100692.91;5093639;28;20024;-45
2022/09/15 06:17:46;;;;;;;46.78;32.25;;;;;;;12.35;100.00;100686.09;5092880;28;20031;-44
2022/09/15 06:20:11;;;;;;;44.75;31.95;;;;;;;12.31;100.00;100691.19;5093367;28;20027;-44
2022/09/15 06:22:37;;;;;;;41.25;29.80;;;;;;;12.30;100.00;100692.03;5093587;28;20896;-48
2022/09/15 06:25:02;;;;;;;43.13;30.80;;;;;;;12.32;100.00;100693.81;5092648;28;20040;-46
2022/09/15 06:27:27;;;;;;;44.25;31.73;;;;;;;12.31;100.00;100689.47;5093875;28;20028;-44
2022/09/15 06:29:53;;;;;;;46.70;32.72;;;;;;;12.37;100.00;100691.31;5093512;28;20024;-46
2022/09/15 06:32:18;;;;;;;44.83;33.25;;;;;;;12.46;100.00;100699.25;5092602;28;20027;-45
2022/09/15 06:34:43;;;;;;;45.70;33.95;;;;;;;12.55;100.00;100695.09;5093485;28;20038;-45
2022/09/15 06:37:08;;;;;;;44.63;31.95;;;;;;;12.53;100.00;100708.00;5093248;28;20043;-45
2022/09/15 06:39:36;;;;;;;48.65;34.78;;;;;;;12.66;100.00;100709.09;5092949;28;20100;-47
2022/09/15 06:42:02;;;;;;;49.08;33.03;;;;;;;12.65;100.00;100712.53;5096720;28;20055;-46
2022/09/15 06:44:27;;;;;;;38.25;29.20;;;;;;;12.67;100.00;100719.47;5094733;28;20034;-47
2022/09/15 06:46:53;;;;;;;49.70;29.25;;;;;;;12.73;100.00;100718.72;5092939;28;20134;-45
2022/09/15 06:49:19;;;;;;;43.00;29.08;;;;;;;12.77;100.00;100723.09;5109185;28;20085;-45
2022/09/15 06:51:44;;;;;;;41.72;29.35;;;;;;;12.82;100.00;100724.06;5106689;28;20071;-44
2022/09/15 06:54:10;;;;;;;37.22;29.70;;;;;;;12.89;100.00;100726.75;5100617;28;20047;-43
2022/09/15 06:56:36;;;;;;;37.17;27.55;;;;;;;12.90;100.00;100729.38;5112461;28;20024;-45
2022/09/15 06:59:02;;;;;;;41.97;30.95;;;;;;;13.00;100.00;100728.69;5113009;28;20023;-44
2022/09/15 07:01:30;;;;;;;49.45;34.45;;;;;;;13.31;100.00;100731.81;5112204;28;20035;-45
2022/09/15 07:03:57;;;;;;;49.83;33.10;;;;;;;13.29;100.00;100732.63;5111840;28;20028;-44
2022/09/15 07:06:23;;;;;;;38.95;30.20;;;;;;;13.40;100.00;100738.88;5111411;28;20381;-45
2022/09/15 07:08:49;;;;;;;50.47;32.33;;;;;;;13.54;100.00;100743.41;5112970;28;20545;-46
2022/09/15 07:11:15;;;;;;;42.63;29.10;;;;;;;13.55;100.00;100746.00;5112783;28;20020;-45
2022/09/15 07:13:41;;;;;;;33.97;26.08;;;;;;;13.61;100.00;100740.94;5112398;28;20020;-45
2022/09/15 07:16:08;;;;;;;37.78;26.50;;;;;;;13.62;100.00;100747.88;5112721;28;20026;-44
2022/09/15 07:18:34;;;;;;;30.10;24.75;;;;;;;13.68;100.00;100748.81;5110002;28;20028;-46
2022/09/15 07:21:04;;;;;;;32.15;23.42;;;;;;;13.70;100.00;100750.56;5090849;28;20116;-49
2022/09/15 07:23:31;;;;;;;27.98;21.55;;;;;;;13.73;100.00;100742.84;5096850;28;20370;-44
2022/09/15 07:26:03;;;;;;;30.63;21.55;;;;;;;13.82;100.00;100752.47;5114809;28;20098;-49
2022/09/15 07:28:29;;;;;;;30.95;21.30;;;;;;;13.89;100.00;100748.25;5116585;28;20059;-46
2022/09/15 07:30:55;;;;;;;30.23;23.33;;;;;;;13.95;100.00;100756.97;5116808;28;20043;-44
2022/09/15 07:33:20;;;;;;;32.67;24.30;;;;;;;14.08;100.00;100764.94;5116567;28;20040;-45
2022/09/15 07:35:45;;;;;;;33.08;24.77;;;;;;;14.15;100.00;100754.66;5116313;28;20413;-44
2022/09/15 07:38:11;;;;;;;31.38;23.08;;;;;;;14.14;100.00;100763.28;5116512;28;20027;-44
2022/09/15 07:40:37;;;;;;;36.80;24.17;;;;;;;14.28;100.00;100757.41;5109667;28;20036;-45
2022/09/15 07:43:03;;;;;;;32.42;20.15;;;;;;;14.26;100.00;100767.75;5112239;28;20050;-47
2022/09/15 07:45:29;;;;;;;29.45;18.45;;;;;;;14.29;100.00;100762.63;5116630;28;20039;-44
2022/09/15 07:47:55;;;;;;;25.38;18.27;;;;;;;14.33;100.00;100767.00;5116919;28;20012;-45
2022/09/15 07:50:20;;;;;;;31.98;19.98;;;;;;;14.49;100.00;100765.44;5116204;28;20024;-46
2022/09/15 07:52:45;;;;;;;32.25;21.48;;;;;;;14.65;100.00;100770.84;5116873;28;20032;-45
2022/09/15 07:55:11;;;;;;;31.42;19.80;;;;;;;14.55;100.00;100771.56;5116618;28;20028;-46
2022/09/15 07:57:36;;;;;;;27.38;20.05;;;;;;;14.64;100.00;100770.00;5116193;28;20033;-45
2022/09/15 08:00:03;;;;;;;25.63;17.45;;;;;;;14.55;100.00;100772.44;5114361;27;20467;-44
2022/09/15 08:02:28;;;;;;;23.70;17.90;;;;;;;14.57;100.00;100775.91;5097228;28;20106;-46
2022/09/15 08:04:55;;;;;;;23.20;17.52;;;;;;;14.52;100.00;100775.00;5094127;28;20035;-44
2022/09/15 08:07:20;;;;;;;23.40;16.80;;;;;;;14.44;100.00;100785.25;5109775;28;20107;-43
2022/09/15 08:09:45;;;;;;;26.00;16.77;;;;;;;14.46;100.00;100783.56;5111171;27;20415;-43
2022/09/15 08:12:11;;;;;;;24.92;18.17;;;;;;;14.64;100.00;100785.56;5099787;28;20028;-44
2022/09/15 08:14:36;;;;;;;27.08;19.80;;;;;;;14.75;100.00;100790.84;5106591;28;20019;-44
2022/09/15 08:17:03;;;;;;;23.70;18.10;;;;;;;14.94;100.00;100796.28;5115215;28;20065;-43
2022/09/15 08:19:30;;;;;;;22.60;14.02;;;;;;;14.93;100.00;100786.75;5113765;28;20016;-43
2022/09/15 08:21:56;;;;;;;17.48;13.65;;;;;;;14.96;100.00;100794.53;5105644;28;20054;-44
2022/09/15 08:24:22;;;;;;;16.80;12.52;;;;;;;14.99;100.00;100792.00;5108605;28;20379;-45
2022/09/15 08:26:48;;;;;;;18.88;12.27;;;;;;;14.99;100.00;100802.38;5104846;28;20063;-44
2022/09/15 08:29:14;;;;;;;18.83;12.70;;;;;;;15.01;100.00;100792.88;5101345;28;20046;-43
2022/09/15 08:31:39;;;;;;;17.98;13.18;;;;;;;15.13;100.00;100800.78;5108520;28;20024;-44
2022/09/15 08:34:05;;;;;;;18.52;12.43;;;;;;;15.18;100.00;100794.78;5112462;28;20027;-47
2022/09/15 08:36:32;;;;;;;15.70;11.38;;;;;;;15.12;100.00;100796.44;5111457;28;20024;-43
2022/09/15 08:38:58;;;;;;;18.25;11.35;;;;;;;15.17;100.00;100806.00;5114642;28;20068;-44
2022/09/15 08:41:38;;;;;;;17.98;10.35;;;;;;;15.12;100.00;100803.38;5115383;28;20023;-43
2022/09/15 08:44:22;;;;;;;14.43;10.30;;;;;;;15.05;100.00;100812.81;5115028;28;20343;-43
2022/09/15 08:46:56;;;;;;;16.83;10.98;;;;;;;15.07;100.00;100808.50;5099420;28;20494;-44
2022/09/15 08:49:28;;;;;;;15.57;10.27;;;;;;;15.23;100.00;100813.88;5112138;28;20367;-43
2022/09/15 08:51:57;;;;;;;17.33;10.82;;;;;;;15.35;100.00;100807.91;5114174;28;20076;-43
2022/09/15 08:54:26;;;;;;;17.95;11.52;;;;;;;15.48;100.00;100818.44;5114219;28;20024;-44
2022/09/15 08:56:52;;;;;;;18.35;10.98;;;;;;;15.62;100.00;100812.47;5099673;28;20102;-45
2022/09/15 08:59:19;;;;;;;18.30;10.77;;;;;;;15.72;100.00;100822.06;5104998;28;20134;-43
2022/09/15 09:01:44;;;;;;;15.13;10.32;;;;;;;15.93;100.00;100820.53;5108519;28;20478;-43
2022/09/15 09:04:31;;;;;;;14.73;9.98;;;;;;;16.09;100.00;100830.19;5101600;28;20112;-44
2022/09/15 09:07:20;;;;;;;12.55;9.77;;;;;;;16.29;100.00;100832.91;5109936;28;20027;-44
2022/09/15 09:09:55;;;;;;;17.30;9.40;;;;;;;16.33;100.00;100833.78;5098383;28;20020;-43
2022/09/15 09:12:36;;;;;;;12.18;9.32;;;;;;;16.41;98.46;100842.50;5111959;28;20028;-44
2022/09/15 09:15:31;;;;;;;16.95;9.57;;;;;;;16.29;98.58;100840.72;5114162;28;20019;-44
2022/09/15 09:18:38;;;;;;;15.02;8.38;;;;;;;16.15;97.41;100846.69;5110247;28;20106;-45
2022/09/15 09:21:26;;;;;;;12.32;8.52;;;;;;;16.02;98.12;100854.38;5107926;28;20051;-43
2022/09/15 09:24:04;;;;;;;13.65;7.63;;;;;;;15.96;96.07;100849.16;5110003;28;20370;-44
2022/09/15 09:26:33;;;;;;;12.23;7.13;;;;;;;16.03;95.66;100847.47;5108136;27;20024;-45
2022/09/15 09:29:03;;;;;;;13.00;7.22;;;;;;;15.85;95.57;100853.41;5098780;28;20032;-46
2022/09/15 09:31:28;;;;;;;16.45;7.85;;;;;;;15.95;96.29;100853.47;5112094;28;20032;-45
2022/09/15 09:34:19;;;;;;;13.70;7.35;;;;;;;15.96;98.70;100846.56;5114395;28;20489;-44
2022/09/15 09:36:51;;;;;;;14.93;8.20;;;;;;;15.66;97.79;100848.03;5114634;28;20059;-45
2022/09/15 09:39:16;;;;;;;13.15;8.48;;;;;;;15.56;97.90;100847.06;5114392;28;20016;-44
2022/09/15 09:41:43;;;;;;;16.85;8.45;;;;;;;15.41;98.55;100858.16;5113683;28;20042;-45
2022/09/15 09:44:13;;;;;;;15.02;8.82;;;;;;;15.35;100.00;100857.25;5114064;28;20030;-45
2022/09/15 09:46:39;;;;;;;14.93;8.55;;;;;;;15.43;100.00;100855.63;5113548;28;20077;-46
2022/09/15 09:49:16;;;;;;;20.15;9.05;;;;;;;15.36;100.00;100859.84;5113040;28;20031;-47
2022/09/15 09:51:49;;;;;;;14.13;8.10;;;;;;;15.25;100.00;100857.16;5112684;28;20027;-47
2022/09/15 09:54:19;;;;;;;16.90;9.13;;;;;;;15.10;100.00;100859.59;5106434;28;20531;-44
2022/09/15 09:56:46;;;;;;;17.52;9.90;;;;;;;14.99;100.00;100859.47;5109193;28;20024;-43
2022/09/15 09:59:30;;;;;;;14.30;9.85;;;;;;;15.01;100.00;100856.91;5105635;28;20463;-45
2022/09/15 10:02:12;;;;;;;17.50;10.25;;;;;;;14.91;100.00;100861.97;5098541;28;20027;-44
2022/09/15 10:04:43;;;;;;;19.05;10.75;;;;;;;15.02;100.00;100858.66;5113495;28;20024;-44
2022/09/15 10:07:09;;;;;;;15.15;8.57;;;;;;;15.05;100.00;100859.53;5104396;28;20030;-44
2022/09/15 10:09:36;;;;;;;16.08;8.57;;;;;;;15.21;100.00;100859.69;5103344;28;20032;-44
2022/09/15 10:12:03;;;;;;;17.33;10.15;;;;;;;15.25;100.00;100864.09;5111971;28;20055;-44
2022/09/15 10:14:37;;;;;;;17.33;9.52;;;;;;;15.22;100.00;100872.72;5109976;28;20046;-44
2022/09/15 10:17:12;;;;;;;15.63;9.05;;;;;;;15.22;100.00;100864.03;5108831;28;20473;-45
2022/09/15 10:19:57;;;;;;;15.57;9.02;;;;;;;15.28;100.00;100859.78;5113227;28;20038;-44
2022/09/15 10:22:33;;;;;;;15.13;7.80;;;;;;;15.20;100.00;100860.56;5103525;28;20467;-44
2022/09/15 10:25:00;;;;;;;14.32;7.40;;;;;;;15.54;100.00;100843.56;5112240;28;20019;-45
2022/09/15 10:27:31;;;;;;;15.57;8.38;;;;;;;15.65;100.00;100846.28;5101752;28;20479;-44
2022/09/15 10:30:16;;;;;;;18.08;8.45;;;;;;;15.92;100.00;100847.38;5113507;28;20016;-44
2022/09/15 10:32:42;;;;;;;16.10;8.68;;;;;;;15.91;100.00;100840.47;5113783;28;20031;-43
2022/09/15 10:35:10;;;;;;;13.95;8.20;;;;;;;16.25;98.13;100838.94;5113430;28;20024;-44
2022/09/15 10:38:11;;;;;;;13.60;8.07;;;;;;;16.49;100.00;100846.88;5103397;28;20126;-44
2022/09/15 10:40:46;;;;;;;18.90;7.57;;;;;;;16.27;96.48;100852.84;5030271;28;20056;-43
2022/09/15 10:43:26;;;;;;;11.57;5.40;;;;;;;16.08;94.94;100857.03;5099745;28;20039;-43
2022/09/15 10:46:03;;;;;;;11.20;4.85;;;;;;;15.96;96.24;100877.75;5096235;28;20054;-44
2022/09/15 10:48:39;;;;;;;41.47;8.05;;;;;;;15.25;96.29;100887.47;5113367;28;20073;-44
2022/09/15 10:51:25;;;;;;;11.40;2.08;;;;;;;14.43;95.08;100886.38;5101381;28;20039;-46
2022/09/15 10:53:56;;;;;;;7.50;2.30;;;;;;;13.99;98.49;100885.75;5108127;28;20026;-43
2022/09/15 10:56:41;;;;;;;10.27;1.83;;;;;;;13.81;99.28;100883.72;5112896;28;20032;-43
2022/09/15 10:59:19;;;;;;;6.80;1.60;;;;;;;13.57;98.24;100878.97;5109712;28;20046;-43
2022/09/15 11:01:47;;;;;;;;;;;;;;;13.82;99.04;100877.66;5112459;28;20035;-44
2022/09/15 11:04:38;;;;;;;6.80;1.40;;;;;;;13.64;100.00;100880.81;5112200;28;19915;-44
2022/09/15 11:07:14;;;;;;;7.85;1.40;;;;;;;13.69;100.00;100877.47;5106375;28;20101;-43
2022/09/15 11:09:49;;;;;;;8.68;2.40;;;;;;;14.11;100.00;100884.16;5113152;28;20034;-45
2022/09/15 11:12:29;;;;;;;7.85;1.90;;;;;;;14.32;100.00;100875.88;5103852;28;20019;-43
2022/09/15 11:15:33;;;;;;;7.15;2.28;;;;;;;14.93;100.00;100880.16;5113076;28;20027;-43
2022/09/15 11:18:26;;;;;;;8.93;1.98;;;;;;;15.72;97.95;100868.00;5089148;28;20131;-43